Data for 01/12/2014

Time Sea-Level Adjusted Pressure Absolute Pressure Temperature Relative Humidity Dew Point   
(mb) (inHg) (mb) (inHg) (C) (F) (%) (C) (F)
00:05 1002 29.59 831 24.54 0.8 33.4 60 -6.1 21.1
00:10 1002 29.59 831 24.54 0.8 33.5 59 -6.3 20.7
00:15 1002 29.59 831 24.54 1 33.8 59 -6.2 20.8
00:20 1002 29.59 831 24.54 1.1 33.9 58 -6.4 20.5
00:25 1002 29.59 831 24.54 1.1 34 57 -6.4 20.5
00:30 1002 29.59 831 24.54 1.1 34 57 -6.4 20.4
00:35 1002 29.59 831 24.54 0.9 33.7 58 -6.3 20.6
00:40 1002 29.59 831 24.54 0.9 33.6 59 -6.2 20.8
00:45 1002 29.59 831 24.54 0.8 33.5 58 -6.5 20.3
00:50 1002 29.59 831 24.54 0.8 33.4 59 -6.4 20.5
00:55 1002 29.59 831 24.54 0.8 33.4 58 -6.7 20
01:00 1002 29.59 831 24.54 0.8 33.4 56 -7 19.4
01:05 1002 29.59 831 24.54 0.8 33.5 53 -7.8 18
01:10 1002 29.59 831 24.54 1.2 34.1 50 -8.2 17.2
01:15 1002 29.59 831 24.54 1.5 34.7 47 -8.7 16.3
01:20 1002 29.59 831 24.54 1.6 34.8 47 -8.7 16.4
01:25 1002 29.59 831 24.54 1.6 34.8 46 -8.9 15.9
01:30 1002 29.59 831 24.54 1.6 34.9 44 -9.3 15.3
01:35 1002 29.59 831 24.54 1.6 34.8 44 -9.4 15.1
01:40 1001 29.56 831 24.54 1.5 34.7 45 -9.2 15.4
01:45 1001 29.56 831 24.54 1.6 34.9 42 -10.1 13.8
01:50 1001 29.56 830 24.51 1.7 35.1 41 -10 13.9
01:55 1001 29.56 831 24.54 1.6 34.9 43 -9.6 14.7
02:00 1001 29.56 831 24.54 1.4 34.6 44 -9.5 14.8
02:05 1001 29.56 831 24.54 1.4 34.5 43 -9.8 14.4
02:10 1001 29.56 830 24.51 1.5 34.7 44 -9.6 14.8
02:15 1001 29.56 830 24.51 1.4 34.6 44 -9.5 14.9
02:20 1001 29.56 830 24.51 1.4 34.4 45 -9.3 15.3
02:25 1001 29.56 830 24.51 1.4 34.5 43 -9.8 14.4
02:30 1001 29.56 830 24.51 1.5 34.8 43 -9.7 14.6
02:35 1001 29.56 830 24.51 1.6 34.9 41 -10.2 13.7
02:40 1001 29.56 830 24.51 1.6 35 41 -10.2 13.7
02:45 1001 29.56 830 24.51 1.7 35.1 41 -10.3 13.5
02:50 1001 29.56 830 24.51 1.8 35.2 40 -10.4 13.4
02:55 1001 29.56 830 24.51 1.7 35.1 42 -9.8 14.4
03:00 1001 29.56 830 24.51 1.6 34.9 43 -9.7 14.5
03:05 1001 29.56 830 24.51 1.5 34.8 43 -9.6 14.7
03:10 1001 29.56 830 24.51 1.4 34.5 43 -10 14.1
03:15 1001 29.56 830 24.51 1.3 34.4 43 -9.8 14.4
03:20 1001 29.56 830 24.51 1.3 34.3 41 -10.6 12.9
03:25 1001 29.56 830 24.51 1.5 34.6 40 -10.7 12.8
03:30 1001 29.56 830 24.51 1.5 34.7 42 -10 13.9
03:35 1001 29.56 831 24.54 1.4 34.4 43 -9.9 14.1
03:40 1001 29.56 831 24.54 1.2 34.2 43 -9.9 14.1
03:45 1001 29.56 831 24.54 1.2 34.1 44 -9.7 14.5
03:50 1001 29.56 830 24.51 1.2 34.2 43 -9.9 14.1
03:55 1001 29.56 831 24.54 1.4 34.4 43 -10 14.1
04:00 1001 29.56 831 24.54 1.3 34.4 42 -10.1 13.8
04:05 1001 29.56 831 24.54 1.4 34.6 43 -9.8 14.4
04:10 1002 29.59 831 24.54 1.3 34.4 42 -10.1 13.8
04:15 1002 29.59 831 24.54 1.3 34.4 43 -9.9 14.2
04:20 1002 29.59 831 24.54 1.4 34.4 43 -9.9 14.2
04:25 1002 29.59 831 24.54 1.4 34.5 43 -9.8 14.3
04:30 1002 29.59 831 24.54 1.5 34.7 43 -9.8 14.4
04:35 1002 29.59 831 24.54 1.5 34.8 44 -9.5 14.8
04:40 1002 29.59 831 24.54 1.5 34.7 45 -9.3 15.3
04:45 1002 29.59 831 24.54 1.4 34.6 49 -8.2 17.2
04:50 1002 29.59 831 24.54 1.1 34.1 51 -7.8 17.9
04:55 1002 29.59 831 24.54 0.9 33.6 50 -8.3 17.1
05:00 1002 29.59 831 24.54 1.1 34 52 -7.7 18.1
05:05 1002 29.59 831 24.54 0.8 33.5 53 -7.8 18
05:10 1002 29.59 831 24.54 0.7 33.3 53 -7.8 18
05:15 1002 29.59 831 24.54 0.6 33.1 57 -7 19.3
05:20 1002 29.59 831 24.54 0.4 32.7 57 -7.2 19
05:25 1002 29.59 832 24.57 0.4 32.7 58 -6.9 19.6
05:30 1002 29.59 832 24.57 0.2 32.4 60 -6.6 20.1
05:35 1002 29.59 831 24.54 0 32 61 -6.7 19.9
05:40 1002 29.59 831 24.54 -0 31.9 62 -6.5 20.3
05:45 1002 29.59 831 24.54 -0.2 31.6 65 -6.1 21.1
05:50 1002 29.59 832 24.57 -0.5 31.2 64 -6.4 20.5
05:55 1003 29.62 832 24.57 -0.4 31.3 63 -6.6 20
06:00 1003 29.62 832 24.57 -0.3 31.4 62 -6.8 19.7
06:05 1003 29.62 832 24.57 -0.2 31.6 58 -7.5 18.5
06:10 1003 29.62 832 24.57 0.1 32.1 56 -7.7 18.1
06:15 1003 29.62 832 24.57 0.2 32.3 57 -7.4 18.6
06:20 1003 29.62 832 24.57 0.1 32.2 57 -7.4 18.6
06:25 1003 29.62 832 24.57 0.1 32.1 57 -7.5 18.5
06:30 1003 29.62 832 24.57 0.1 32.2 58 -7.3 18.9
06:35 1003 29.62 832 24.57 0 32.1 59 -7 19.3
06:40 1003 29.62 832 24.57 -0.1 31.8 59 -7.2 19.1
06:45 1003 29.62 833 24.6 -0.2 31.7 60 -7.1 19.2
06:50 1003 29.62 833 24.6 -0.3 31.5 61 -6.9 19.6
06:55 1003 29.62 833 24.6 -0.3 31.4 60 -7.1 19.2
07:00 1003 29.62 833 24.6 -0.3 31.4 61 -7 19.5
07:05 1003 29.62 833 24.6 -0.4 31.3 61 -7.1 19.3
07:10 1004 29.65 833 24.6 -0.4 31.2 61 -7.1 19.3
07:15 1003 29.62 833 24.6 -0.4 31.2 60 -7.4 18.8
07:20 1004 29.65 833 24.6 -0.3 31.4 58 -7.6 18.3
07:25 1004 29.65 833 24.6 -0.3 31.4 58 -7.6 18.3
07:30 1004 29.65 833 24.6 -0.3 31.5 56 -8 17.6
07:35 1004 29.65 833 24.6 -0.4 31.3 57 -7.8 17.9
07:40 1004 29.65 833 24.6 -0.6 31 57 -8.2 17.3
07:45 1004 29.65 833 24.6 -0.5 31 56 -8.2 17.2
07:50 1004 29.65 833 24.6 -0.4 31.2 54 -8.6 16.6
07:55 1004 29.65 833 24.6 -0.4 31.3 53 -8.9 16
08:00 1004 29.65 833 24.6 -0.2 31.6 52 -9 15.9
08:05 1004 29.65 833 24.6 -0.2 31.6 51 -9.2 15.5
08:10 1004 29.65 833 24.6 -0.2 31.7 51 -9.1 15.7
08:15 1004 29.65 833 24.6 -0.2 31.6 52 -8.8 16.1
08:20 1004 29.65 834 24.63 -0.3 31.5 52 -9 15.8
08:25 1004 29.65 834 24.63 -0.2 31.6 49 -9.6 14.7
08:30 1005 29.68 834 24.63 0 32 48 -9.8 14.4
08:35 1005 29.68 834 24.63 0.1 32.2 48 -9.7 14.5
08:40 1005 29.68 834 24.63 0.1 32.2 47 -9.9 14.2
08:45 1005 29.68 834 24.63 0.1 32.1 47 -9.9 14.2
08:50 1005 29.68 834 24.63 0.1 32.2 49 -9.5 14.9
08:55 1005 29.68 835 24.66 -0 31.9 49 -9.5 14.9
09:00 1005 29.68 835 24.66 -0.1 31.9 49 -9.6 14.8
09:05 1006 29.71 835 24.66 -0.1 31.8 48 -9.8 14.4
09:10 1006 29.71 835 24.66 0 32.1 48 -9.8 14.4
09:15 1006 29.71 835 24.66 0.1 32.2 46 -10.3 13.5
09:20 1006 29.71 835 24.66 0.1 32.3 45 -10.5 13.1
09:25 1006 29.71 835 24.66 0.2 32.4 46 -10.2 13.7
09:30 1006 29.71 835 24.66 0.1 32.3 46 -10.1 13.8
09:35 1006 29.71 836 24.69 0 32.1 48 -9.6 14.7
09:40 1006 29.71 836 24.69 -0.1 31.7 50 -9.5 15
09:45 1007 29.74 836 24.69 -0.3 31.5 50 -9.5 14.8
09:50 1007 29.74 836 24.69 -0.3 31.5 49 -9.7 14.5
09:55 1007 29.74 836 24.69 -0.3 31.5 50 -9.6 14.7
10:00 1007 29.74 836 24.69 -0.2 31.6 50 -9.5 14.9
10:05 1007 29.74 836 24.69 -0.3 31.5 50 -9.4 15.1
10:10 1007 29.74 836 24.69 -0.3 31.5 50 -9.5 14.8
10:15 1007 29.74 836 24.69 -0.2 31.6 51 -9.2 15.5
10:20 1007 29.74 837 24.72 -0.2 31.6 51 -9.1 15.6
10:25 1008 29.77 837 24.72 -0.2 31.7 49 -9.6 14.7
10:30 1008 29.77 837 24.72 -0.1 31.9 48 -9.8 14.3
10:35 1008 29.77 837 24.72 0.2 32.4 44 -10.6 13
10:40 1008 29.77 837 24.72 0.6 33 40 -11.5 11.4
10:45 1008 29.77 837 24.72 0.9 33.6 40 -11.3 11.7
10:50 1008 29.77 837 24.72 0.9 33.6 45 -9.6 14.7
10:55 1008 29.77 837 24.72 0.5 32.8 50 -8.9 16
11:00 1008 29.77 838 24.75 0.2 32.4 50 -8.9 15.9
11:05 1008 29.77 837 24.72 0.1 32.3 49 -9.5 15
11:10 1008 29.77 838 24.75 0.3 32.6 48 -9.6 14.7
11:15 1009 29.8 838 24.75 0.3 32.5 53 -8.3 17.1
11:20 1009 29.8 838 24.75 0.1 32.2 53 -8.4 16.9
11:25 1009 29.8 838 24.75 0 32 53 -8.6 16.6
11:30 1009 29.8 838 24.75 0.1 32.1 52 -8.6 16.5
11:35 1009 29.8 838 24.75 0.1 32.2 52 -8.7 16.4
11:40 1009 29.8 838 24.75 0.1 32.2 53 -8.5 16.7
11:45 1009 29.8 838 24.75 0.2 32.3 50 -9 15.9
11:50 1009 29.8 839 24.78 0.3 32.5 50 -8.8 16.1
11:55 1009 29.8 839 24.78 0.4 32.7 51 -8.7 16.4
12:00 1010 29.83 839 24.78 0.4 32.7 50 -9 15.8
12:05 1010 29.83 839 24.78 0.4 32.7 49 -9.1 15.6
12:10 1010 29.83 839 24.78 0.5 32.8 49 -9.1 15.7
12:15 1010 29.83 839 24.78 0.4 32.8 48 -9.4 15.1
12:20 1010 29.83 839 24.78 0.5 32.9 49 -9.1 15.6
12:25 1010 29.83 839 24.78 0.4 32.8 50 -8.9 16
12:30 1010 29.83 839 24.78 0.4 32.7 52 -8.5 16.8
12:35 1010 29.83 839 24.78 0.2 32.4 52 -8.6 16.5
12:40 1010 29.83 839 24.78 0.2 32.4 50 -8.9 16
12:45 1010 29.83 839 24.78 0.3 32.5 49 -9.3 15.2
12:50 1010 29.83 839 24.78 0.2 32.4 53 -8.4 16.9
12:55 1010 29.83 840 24.81 0.2 32.4 52 -8.6 16.6
13:00 1010 29.83 839 24.78 0.1 32.2 54 -8.1 17.4
13:05 1010 29.83 840 24.81 0.1 32.2 56 -7.8 18
13:10 1010 29.83 840 24.81 0 32 56 -7.8 18
13:15 1011 29.85 840 24.81 0.2 32.3 49 -9.3 15.3
13:20 1010 29.83 840 24.81 0.5 32.8 48 -9.2 15.4
13:25 1011 29.85 840 24.81 0.5 32.9 47 -9.5 14.9
13:30 1011 29.85 840 24.81 0.5 32.9 49 -9 15.9
13:35 1011 29.85 840 24.81 0.5 32.8 50 -8.8 16.1
13:40 1011 29.85 840 24.81 0.5 32.9 49 -9 15.8
13:45 1011 29.85 840 24.81 0.6 33.1 47 -9.5 15
13:50 1011 29.85 840 24.81 0.7 33.3 46 -9.7 14.6
13:55 1011 29.85 840 24.81 0.8 33.4 44 -10.2 13.7
14:00 1011 29.85 840 24.81 0.8 33.4 43 -10.4 13.3
14:05 1011 29.85 840 24.81 0.8 33.5 42 -10.8 12.6
14:10 1011 29.85 840 24.81 0.8 33.5 41 -11.1 12
14:15 1011 29.85 840 24.81 0.8 33.5 39 -11.7 10.9
14:20 1011 29.85 840 24.81 0.8 33.4 40 -11.2 11.8
14:25 1011 29.85 841 24.83 0.8 33.5 42 -10.8 12.6
14:30 1011 29.85 841 24.83 0.8 33.4 41 -11 12.3
14:35 1011 29.85 841 24.83 0.8 33.4 42 -10.6 12.9
14:40 1012 29.88 841 24.83 0.8 33.5 39 -11.7 10.9
14:45 1012 29.88 841 24.83 0.8 33.5 39 -11.7 11
14:50 1012 29.88 841 24.83 0.8 33.5 40 -11.4 11.4
14:55 1012 29.88 841 24.83 0.8 33.5 39 -11.6 11.1
15:00 1012 29.88 841 24.83 0.8 33.5 40 -11.3 11.6
15:05 1012 29.88 841 24.83 0.8 33.4 40 -11.4 11.4
15:10 1012 29.88 841 24.83 0.9 33.5 41 -11.1 12
15:15 1012 29.88 841 24.83 0.9 33.5 38 -11.9 10.6
15:20 1012 29.88 841 24.83 0.8 33.5 41 -11 12.2
15:25 1012 29.88 842 24.86 0.8 33.4 41 -11.1 12
15:30 1013 29.91 842 24.86 0.8 33.4 42 -10.6 12.9
15:35 1013 29.91 842 24.86 0.7 33.3 41 -11.1 12.1
15:40 1013 29.91 842 24.86 0.8 33.4 42 -10.7 12.8
15:45 1013 29.91 842 24.86 0.7 33.3 42 -10.9 12.3
15:50 1013 29.91 842 24.86 0.7 33.2 42 -10.8 12.6
15:55 1013 29.91 842 24.86 0.6 33.1 43 -10.5 13
16:00 1013 29.91 842 24.86 0.5 33 44 -10.3 13.5
16:05 1013 29.91 843 24.89 0.5 32.8 44 -10.4 13.3
16:10 1013 29.91 843 24.89 0.4 32.8 45 -10.2 13.6
16:15 1013 29.91 843 24.89 0.4 32.7 45 -10.3 13.4
16:20 1013 29.91 843 24.89 0.4 32.7 46 -10 14
16:25 1013 29.91 843 24.89 0.3 32.5 43 -10.9 12.4
16:30 1014 29.94 843 24.89 0.3 32.6 43 -10.9 12.5
16:35 1014 29.94 843 24.89 0.3 32.6 43 -10.7 12.7
16:40 1014 29.94 843 24.89 0.3 32.6 43 -10.8 12.6
16:45 1014 29.94 843 24.89 0.3 32.6 44 -10.6 13
16:50 1014 29.94 843 24.89 0.3 32.5 43 -10.8 12.5
16:55 1014 29.94 843 24.89 0.3 32.5 44 -10.6 12.9
17:00 1014 29.94 843 24.89 0.2 32.3 46 -10.2 13.7
17:05 1014 29.94 843 24.89 0.1 32.2 45 -10.5 13.1
17:10 1014 29.94 843 24.89 0 32.1 46 -10.2 13.6
17:15 1014 29.94 843 24.89 -0 32 46 -10.4 13.3
17:20 1014 29.94 843 24.89 -0 32 43 -11.2 11.9
17:25 1014 29.94 843 24.89 0.1 32.1 43 -11.2 11.9
17:30 1014 29.94 843 24.89 0 32.1 44 -10.9 12.5
17:35 1014 29.94 843 24.89 -0.1 31.8 44 -10.8 12.5
17:40 1014 29.94 843 24.89 -0.2 31.6 46 -10.6 12.9
17:45 1014 29.94 843 24.89 -0.3 31.4 46 -10.7 12.8
17:50 1014 29.94 844 24.92 -0.4 31.3 46 -10.6 12.8
17:55 1014 29.94 844 24.92 -0.5 31.2 46 -10.7 12.8
18:00 1014 29.94 844 24.92 -0.5 31.1 45 -11 12.3
18:05 1014 29.94 844 24.92 -0.4 31.3 45 -10.9 12.4
18:10 1014 29.94 844 24.92 -0.4 31.3 46 -10.7 12.7
18:15 1015 29.97 844 24.92 -0.6 30.9 47 -10.5 13.1
18:20 1015 29.97 844 24.92 -0.7 30.8 48 -10.5 13.1
18:25 1015 29.97 844 24.92 -0.6 31 47 -10.6 13
18:30 1015 29.97 844 24.92 -0.5 31.1 48 -10.2 13.6
18:35 1015 29.97 844 24.92 -0.6 31 47 -10.5 13.2
18:40 1015 29.97 844 24.92 -0.7 30.7 47 -10.7 12.8
18:45 1015 29.97 844 24.92 -0.7 30.8 46 -11 12.3
18:50 1015 29.97 844 24.92 -0.5 31.2 45 -10.9 12.3
18:55 1015 29.97 844 24.92 -0.4 31.2 45 -11.1 12
19:00 1015 29.97 844 24.92 -0.4 31.3 46 -10.5 13
19:05 1015 29.97 844 24.92 -0.5 31.2 47 -10.4 13.3
19:10 1015 29.97 844 24.92 -0.4 31.2 46 -10.8 12.6
19:15 1015 29.97 844 24.92 -0.3 31.4 44 -11.1 12
19:20 1015 29.97 844 24.92 -0.3 31.5 45 -10.9 12.3
19:25 1015 29.97 844 24.92 -0.4 31.3 47 -10.3 13.4
19:30 1015 29.97 844 24.92 -0.5 31 46 -10.7 12.7
19:35 1015 29.97 844 24.92 -0.5 31 47 -10.4 13.3
19:40 1015 29.97 844 24.92 -0.6 31 48 -10.3 13.5
19:45 1015 29.97 844 24.92 -0.6 30.9 49 -10 14
19:50 1015 29.97 844 24.92 -0.5 31.1 48 -10.2 13.6
19:55 1015 29.97 844 24.92 -0.3 31.4 47 -10.3 13.4
20:00 1015 29.97 844 24.92 -0.3 31.5 47 -10.3 13.5
20:05 1015 29.97 844 24.92 -0.2 31.6 46 -10.4 13.3
20:10 1015 29.97 844 24.92 -0.1 31.8 46 -10.4 13.3
20:15 1014 29.94 844 24.92 0 32.1 45 -10.5 13.1
20:20 1014 29.94 844 24.92 0.1 32.2 44 -10.8 12.5
20:25 1014 29.94 843 24.89 0.3 32.5 44 -10.6 12.9
20:30 1014 29.94 843 24.89 0.3 32.5 44 -10.6 12.9
20:35 1014 29.94 843 24.89 0.3 32.5 44 -10.6 13
20:40 1014 29.94 843 24.89 0.3 32.6 44 -10.6 12.9
20:45 1014 29.94 843 24.89 0.5 32.8 45 -10.2 13.6
20:50 1014 29.94 843 24.89 0.4 32.8 44 -10.4 13.3
20:55 1014 29.94 843 24.89 0.5 32.9 44 -10.4 13.4
21:00 1014 29.94 843 24.89 0.5 32.8 47 -9.7 14.5
21:05 1014 29.94 843 24.89 0.5 32.9 46 -9.7 14.5
21:10 1014 29.94 843 24.89 0.5 32.8 46 -9.8 14.4
21:15 1014 29.94 843 24.89 0.4 32.8 47 -9.6 14.7
21:20 1014 29.94 843 24.89 0.4 32.8 47 -9.7 14.6
21:25 1014 29.94 843 24.89 0.4 32.6 47 -9.8 14.4
21:30 1014 29.94 844 24.92 0.4 32.8 46 -9.8 14.3
21:35 1014 29.94 844 24.92 0.5 32.9 47 -9.7 14.6
21:40 1014 29.94 844 24.92 0.5 33 46 -9.8 14.4
21:45 1014 29.94 843 24.89 0.6 33 46 -9.7 14.5
21:50 1014 29.94 843 24.89 0.6 33.1 46 -9.8 14.3
21:55 1014 29.94 843 24.89 0.5 33 46 -9.8 14.4
22:00 1014 29.94 843 24.89 0.6 33.1 46 -9.8 14.4
22:05 1014 29.94 843 24.89 0.7 33.2 45 -9.9 14.1
22:10 1014 29.94 843 24.89 0.8 33.4 46 -9.6 14.7
22:15 1014 29.94 843 24.89 0.8 33.4 46 -9.5 14.9
22:20 1014 29.94 843 24.89 0.7 33.2 46 -9.5 14.8
22:25 1014 29.94 843 24.89 0.6 33.2 46 -9.6 14.8
22:30 1014 29.94 843 24.89 0.6 33.1 48 -9.3 15.3
22:35 1014 29.94 843 24.89 0.6 33 48 -9.1 15.6
22:40 1014 29.94 843 24.89 0.5 33 49 -9.1 15.6
22:45 1014 29.94 843 24.89 0.6 33 48 -9.4 15.1
22:50 1014 29.94 843 24.89 0.7 33.2 49 -8.9 15.9
22:55 1014 29.94 843 24.89 0.7 33.2 47 -9.3 15.2
23:00 1014 29.94 843 24.89 0.7 33.3 48 -9 15.9
23:05 1014 29.94 843 24.89 0.7 33.3 48 -9.2 15.5
23:10 1014 29.94 843 24.89 0.7 33.3 48 -9 15.7
23:15 1014 29.94 843 24.89 0.8 33.4 48 -9.1 15.5
23:20 1014 29.94 843 24.89 0.8 33.5 48 -9 15.8
23:25 1014 29.94 843 24.89 0.9 33.6 47 -9.2 15.5
23:30 1014 29.94 843 24.89 1 33.7 47 -9.2 15.4
23:35 1014 29.94 843 24.89 1.1 34 47 -9.1 15.5
23:40 1014 29.94 843 24.89 1.1 33.9 48 -8.9 16.1
23:45 1014 29.94 843 24.89 1 33.8 48 -8.9 16
23:50 1014 29.94 843 24.89 1 33.7 50 -8.3 17
23:55 1014 29.94 843 24.89 0.9 33.6 50 -8.3 17.1
24:00 1014 29.94 843 24.89 1 33.8 50 -8.3 17